Time;durP1;ratioP1;P1;durP2;ratioP2;P2;SDS_P1;SDS_P2;PMS_P1;PMS_P2;Temp;Humidity;BMP_temperature;BMP_pressure;BME280_temperature;BME280_humidity;BME280_pressure;Samples;Min_cycle;Max_cycle;Signal;HPM_P1;HPM_P2
2023/03/06 00:01:08;;;;;;;9.35;8.35;;;;;;;;;;4991334;28;20397;-82
2023/03/06 00:03:34;;;;;;;10.70;8.32;;;;;;;;;;4992227;28;20398;-82
2023/03/06 00:06:00;;;;;;;9.25;8.38;;;;;;;;;;4993193;28;20383;-83
2023/03/06 00:08:27;;;;;;;10.20;8.30;;;;;;;;;;4992802;28;20472;-83
2023/03/06 00:10:54;;;;;;;9.77;8.88;;;;;;;;;;4992714;28;20394;-83
2023/03/06 00:13:20;;;;;;;9.70;8.68;;;;;;;;;;4992901;28;20485;-83
2023/03/06 00:15:47;;;;;;;10.13;8.77;;;;;;;;;;4975083;28;20425;-82
2023/03/06 00:18:13;;;;;;;10.30;9.15;;;;;;;;;;4974564;28;20788;-83
2023/03/06 00:20:40;;;;;;;10.40;9.23;;;;;;;;;;4977148;28;20418;-83
2023/03/06 00:23:06;;;;;;;10.70;8.82;;;;;;;;;;4992440;28;20398;-83
2023/03/06 00:25:35;;;;;;;10.93;9.20;;;;;;;;;;4992857;28;20405;-82
2023/03/06 00:28:01;;;;;;;9.90;8.90;;;;;;;;;;4992556;28;20394;-83
2023/03/06 00:30:27;;;;;;;10.60;9.43;;;;;;;;;;4992754;28;20485;-83
2023/03/06 00:32:53;;;;;;;10.90;9.32;;;;;;;;;;4992308;28;20762;-83
2023/03/06 00:35:19;;;;;;;10.63;8.98;;;;;;;;;;4992159;28;20421;-83
2023/03/06 00:37:45;;;;;;;9.75;8.75;;;;;;;;;;4992235;28;20544;-83
2023/03/06 00:40:13;;;;;;;11.02;9.90;;;;;;;;;;4992206;28;20500;-83
2023/03/06 00:42:39;;;;;;;10.43;9.43;;;;;;;;;;4992267;28;20391;-83
2023/03/06 00:45:05;;;;;;;10.65;9.40;;;;;;;;;;4992303;28;20387;-83
2023/03/06 00:47:32;;;;;;;10.18;9.13;;;;;;;;;;4992368;28;20394;-83
2023/03/06 00:49:58;;;;;;;10.85;9.75;;;;;;;;;;4992127;28;20856;-83
2023/03/06 00:52:24;;;;;;;12.15;10.00;;;;;;;;;;4992431;28;20437;-83
2023/03/06 00:54:50;;;;;;;10.65;9.55;;;;;;;;;;4992281;28;20473;-83
2023/03/06 00:57:16;;;;;;;13.65;10.85;;;;;;;;;;4992436;28;20395;-83
2023/03/06 00:59:42;;;;;;;11.82;10.35;;;;;;;;;;4992479;28;20876;-83
2023/03/06 01:02:08;;;;;;;16.88;12.07;;;;;;;;;;4992325;28;20391;-83
2023/03/06 01:04:34;;;;;;;12.50;9.63;;;;;;;;;;4992420;28;20425;-83
2023/03/06 01:07:00;;;;;;;11.13;9.87;;;;;;;;;;4991951;28;20390;-83
2023/03/06 01:09:26;;;;;;;11.15;9.93;;;;;;;;;;4992040;28;20390;-83
2023/03/06 01:11:52;;;;;;;11.20;10.10;;;;;;;;;;4991954;28;20394;-83
2023/03/06 01:14:18;;;;;;;11.93;10.45;;;;;;;;;;4974244;28;20424;-83
2023/03/06 01:16:45;;;;;;;10.45;9.35;;;;;;;;;;4992033;28;20398;-83
2023/03/06 01:19:11;;;;;;;11.00;9.57;;;;;;;;;;4991693;28;20451;-83
2023/03/06 01:21:37;;;;;;;11.20;9.82;;;;;;;;;;4991981;28;20394;-83
2023/03/06 01:24:03;;;;;;;13.65;10.50;;;;;;;;;;4992058;28;20501;-83
2023/03/06 01:26:30;;;;;;;11.00;9.90;;;;;;;;;;4992207;28;20895;-83
2023/03/06 01:28:56;;;;;;;12.13;9.85;;;;;;;;;;4991629;28;20383;-83
2023/03/06 01:31:23;;;;;;;10.63;9.40;;;;;;;;;;4992073;28;20526;-83
2023/03/06 01:33:49;;;;;;;11.43;9.88;;;;;;;;;;4974217;28;20449;-83
2023/03/06 01:36:15;;;;;;;12.10;9.40;;;;;;;;;;4991931;28;20884;-83
2023/03/06 01:38:41;;;;;;;10.48;9.25;;;;;;;;;;4991786;28;20387;-83
2023/03/06 01:41:09;;;;;;;13.60;10.33;;;;;;;;;;4991584;28;20439;-83
2023/03/06 01:43:37;;;;;;;11.82;9.88;;;;;;;;;;4991697;28;20817;-83
2023/03/06 01:46:22;;;;;;;10.37;9.10;;;;;;;;;;4991789;28;20390;-83
2023/03/06 01:48:48;;;;;;;11.13;9.30;;;;;;;;;;4991693;28;20397;-83
2023/03/06 01:51:15;;;;;;;11.07;9.52;;;;;;;;;;4991553;28;20418;-83
2023/03/06 01:53:42;;;;;;;9.77;8.77;;;;;;;;;;4991864;28;20394;-83
2023/03/06 01:56:09;;;;;;;12.30;10.15;;;;;;;;;;4991893;28;20417;-83
2023/03/06 01:58:35;;;;;;;11.95;9.75;;;;;;;;;;4991823;28;20468;-83
2023/03/06 02:01:01;;;;;;;12.98;10.38;;;;;;;;;;4992883;28;20477;-83
2023/03/06 02:03:28;;;;;;;12.50;9.73;;;;;;;;;;4995371;28;20945;-82
2023/03/06 02:05:55;;;;;;;10.55;9.40;;;;;;;;;;4995313;28;20393;-83
2023/03/06 02:08:22;;;;;;;11.75;9.85;;;;;;;;;;4995215;28;20413;-83
2023/03/06 02:11:01;;;;;;;11.77;9.63;;;;;;;;;;4995113;28;20393;-83
2023/03/06 02:13:27;;;;;;;10.30;9.20;;;;;;;;;;4995349;28;20569;-83
2023/03/06 02:15:53;;;;;;;12.02;9.48;;;;;;;;;;4995167;28;20426;-83
2023/03/06 02:18:19;;;;;;;11.00;9.40;;;;;;;;;;4995324;28;20393;-83
2023/03/06 02:20:48;;;;;;;13.10;10.40;;;;;;;;;;4994867;28;20397;-83
2023/03/06 02:23:20;;;;;;;12.85;10.32;;;;;;;;;;4995291;28;20398;-83
2023/03/06 02:25:47;;;;;;;14.77;10.63;;;;;;;;;;4994309;28;20390;-83
2023/03/06 02:28:15;;;;;;;16.45;11.80;;;;;;;;;;4994354;28;20402;-83
2023/03/06 02:30:42;;;;;;;17.37;13.33;;;;;;;;;;4994768;28;20571;-83
2023/03/06 02:33:10;;;;;;;13.15;10.85;;;;;;;;;;4994583;28;20398;-83
2023/03/06 02:35:37;;;;;;;12.93;10.20;;;;;;;;;;4992458;28;20973;-83
2023/03/06 02:38:09;;;;;;;14.10;12.60;;;;;;;;;;4991162;28;20406;-83
2023/03/06 02:40:35;;;;;;;11.35;10.13;;;;;;;;;;4985008;28;20451;-83
2023/03/06 02:43:01;;;;;;;10.77;9.63;;;;;;;;;;4992942;28;20383;-83
2023/03/06 02:45:30;;;;;;;11.60;9.82;;;;;;;;;;4993652;28;20474;-83
2023/03/06 02:47:56;;;;;;;11.32;9.80;;;;;;;;;;4994861;28;20533;-83
2023/03/06 02:50:22;;;;;;;12.10;9.75;;;;;;;;;;4976139;28;20497;-83
2023/03/06 02:52:48;;;;;;;11.52;10.35;;;;;;;;;;4994031;28;20395;-83
2023/03/06 02:55:14;;;;;;;11.55;9.73;;;;;;;;;;4976830;28;20429;-83
2023/03/06 02:57:40;;;;;;;11.68;9.40;;;;;;;;;;4994212;28;20382;-83
2023/03/06 03:00:06;;;;;;;11.87;9.43;;;;;;;;;;4994022;28;20887;-83
2023/03/06 03:02:32;;;;;;;11.10;9.82;;;;;;;;;;4976539;28;20629;-83
2023/03/06 03:04:58;;;;;;;10.50;9.07;;;;;;;;;;4976927;28;20979;-83
2023/03/06 03:07:24;;;;;;;10.60;9.50;;;;;;;;;;4994269;28;20393;-83
2023/03/06 03:09:50;;;;;;;10.35;9.13;;;;;;;;;;4994234;28;20397;-83
2023/03/06 03:12:16;;;;;;;11.15;9.48;;;;;;;;;;4993105;28;20732;-83
2023/03/06 03:14:42;;;;;;;10.60;9.40;;;;;;;;;;4994241;28;20505;-83
2023/03/06 03:17:08;;;;;;;10.15;9.13;;;;;;;;;;4994283;28;20395;-83
2023/03/06 03:19:34;;;;;;;10.02;8.90;;;;;;;;;;4994021;28;20412;-83
2023/03/06 03:22:00;;;;;;;11.80;9.75;;;;;;;;;;4993801;28;20382;-83
2023/03/06 03:24:27;;;;;;;11.50;9.90;;;;;;;;;;4993740;28;20382;-83
2023/03/06 03:26:53;;;;;;;11.10;9.35;;;;;;;;;;4993775;28;20409;-83
2023/03/06 03:29:19;;;;;;;11.27;9.65;;;;;;;;;;4975953;28;20908;-83
2023/03/06 03:31:45;;;;;;;10.38;9.27;;;;;;;;;;4993630;28;20398;-83
2023/03/06 03:34:11;;;;;;;10.45;9.27;;;;;;;;;;4993731;28;20799;-83
2023/03/06 03:36:37;;;;;;;9.95;8.95;;;;;;;;;;4993709;28;20402;-83
2023/03/06 03:39:03;;;;;;;10.30;9.20;;;;;;;;;;4993552;28;20387;-83
2023/03/06 03:41:29;;;;;;;9.90;8.85;;;;;;;;;;4993586;28;20449;-83
2023/03/06 03:43:55;;;;;;;10.77;9.27;;;;;;;;;;4993350;28;20444;-83
2023/03/06 03:46:21;;;;;;;10.55;9.45;;;;;;;;;;4993743;28;20852;-83
2023/03/06 03:48:47;;;;;;;10.45;9.25;;;;;;;;;;4993639;28;20391;-83
2023/03/06 03:51:15;;;;;;;9.43;8.52;;;;;;;;;;4993110;28;20386;-83
2023/03/06 03:53:41;;;;;;;10.27;9.18;;;;;;;;;;4993175;28;20448;-83
2023/03/06 03:56:07;;;;;;;10.73;9.50;;;;;;;;;;4975540;28;20418;-83
2023/03/06 03:58:34;;;;;;;10.70;9.60;;;;;;;;;;4993194;28;20391;-83
2023/03/06 04:01:00;;;;;;;10.10;9.10;;;;;;;;;;4992977;28;20397;-83
2023/03/06 04:03:26;;;;;;;10.00;9.00;;;;;;;;;;4993170;28;20565;-83
2023/03/06 04:05:54;;;;;;;11.00;9.57;;;;;;;;;;4993139;28;20556;-83
2023/03/06 04:08:21;;;;;;;9.80;8.80;;;;;;;;;;4993251;28;20402;-83
2023/03/06 04:10:47;;;;;;;11.55;9.45;;;;;;;;;;4992895;28;20383;-83
2023/03/06 04:13:13;;;;;;;11.20;10.00;;;;;;;;;;4993283;28;20405;-83
2023/03/06 04:15:39;;;;;;;11.10;9.40;;;;;;;;;;4992666;28;20402;-83
2023/03/06 04:18:05;;;;;;;10.65;9.55;;;;;;;;;;4993044;28;20748;-83
2023/03/06 04:20:31;;;;;;;10.68;9.52;;;;;;;;;;4975084;28;20394;-83
2023/03/06 04:22:57;;;;;;;12.60;9.90;;;;;;;;;;4992270;28;20441;-83
2023/03/06 04:25:23;;;;;;;10.70;9.45;;;;;;;;;;4992140;28;20474;-83
2023/03/06 04:27:49;;;;;;;10.50;9.40;;;;;;;;;;4992586;28;20398;-83
2023/03/06 04:30:15;;;;;;;10.93;9.82;;;;;;;;;;4992475;28;20740;-83
2023/03/06 04:32:41;;;;;;;10.68;9.45;;;;;;;;;;4992627;28;20405;-83
2023/03/06 04:35:07;;;;;;;10.55;9.05;;;;;;;;;;4992364;28;21155;-83
2023/03/06 04:37:35;;;;;;;11.82;9.10;;;;;;;;;;4974629;28;20481;-83
2023/03/06 04:40:00;;;;;;;11.23;9.03;;;;;;;;;;4992567;28;20418;-83
2023/03/06 04:42:26;;;;;;;11.10;9.02;;;;;;;;;;4992615;28;20461;-83
2023/03/06 04:44:52;;;;;;;10.85;9.82;;;;;;;;;;4992771;28;20390;-83
2023/03/06 04:47:19;;;;;;;10.10;9.20;;;;;;;;;;4992578;28;20791;-83
2023/03/06 04:49:45;;;;;;;11.27;9.77;;;;;;;;;;4992110;28;20386;-83
2023/03/06 04:52:11;;;;;;;10.77;9.60;;;;;;;;;;4992121;28;20452;-83
2023/03/06 04:54:37;;;;;;;10.75;9.57;;;;;;;;;;4992088;28;20501;-83
2023/03/06 04:57:04;;;;;;;11.05;9.10;;;;;;;;;;4992078;28;20473;-83
2023/03/06 04:59:30;;;;;;;10.10;9.10;;;;;;;;;;4992146;28;20398;-83
2023/03/06 05:01:56;;;;;;;12.68;10.82;;;;;;;;;;4992142;28;20391;-83
2023/03/06 05:04:22;;;;;;;13.38;10.40;;;;;;;;;;4992237;28;20449;-83
2023/03/06 05:06:48;;;;;;;11.95;9.50;;;;;;;;;;4991829;28;20409;-83
2023/03/06 05:09:15;;;;;;;11.57;9.85;;;;;;;;;;4992231;28;20448;-83
2023/03/06 05:11:40;;;;;;;12.23;10.55;;;;;;;;;;4991227;28;20390;-83
2023/03/06 05:14:07;;;;;;;13.30;10.87;;;;;;;;;;4992148;28;20437;-83
2023/03/06 05:16:33;;;;;;;12.63;10.73;;;;;;;;;;4992300;28;20880;-83
2023/03/06 05:18:59;;;;;;;12.63;10.43;;;;;;;;;;4991788;28;20410;-83
2023/03/06 05:21:25;;;;;;;12.65;10.60;;;;;;;;;;4991757;28;20387;-83
2023/03/06 05:23:51;;;;;;;13.40;11.43;;;;;;;;;;4991988;28;20393;-83
2023/03/06 05:26:16;;;;;;;13.82;11.05;;;;;;;;;;4991861;28;20410;-82
2023/03/06 05:28:43;;;;;;;13.15;10.85;;;;;;;;;;4992077;28;20756;-82
2023/03/06 05:31:08;;;;;;;12.20;10.85;;;;;;;;;;4991594;28;20382;-82
2023/03/06 05:33:35;;;;;;;13.55;10.95;;;;;;;;;;4992035;28;20382;-83
2023/03/06 05:36:01;;;;;;;11.88;10.55;;;;;;;;;;4993561;28;20437;-83
2023/03/06 05:38:27;;;;;;;12.02;9.98;;;;;;;;;;4992548;28;20386;-83
2023/03/06 05:40:53;;;;;;;11.63;10.30;;;;;;;;;;4993853;28;20402;-83
2023/03/06 05:43:19;;;;;;;11.80;9.77;;;;;;;;;;4993501;28;20452;-83
2023/03/06 05:45:45;;;;;;;12.25;10.45;;;;;;;;;;4993908;28;20384;-83
2023/03/06 05:48:12;;;;;;;13.13;10.30;;;;;;;;;;4994109;28;20461;-83
2023/03/06 05:50:39;;;;;;;12.18;9.35;;;;;;;;;;4993456;28;20433;-83
2023/03/06 05:53:05;;;;;;;11.65;10.23;;;;;;;;;;4993807;28;20394;-83
2023/03/06 05:55:31;;;;;;;12.40;10.55;;;;;;;;;;4993689;28;20908;-83
2023/03/06 05:57:57;;;;;;;13.20;10.02;;;;;;;;;;4993919;28;20386;-83
2023/03/06 06:00:23;;;;;;;11.85;10.15;;;;;;;;;;4994499;28;20390;-83
2023/03/06 06:02:49;;;;;;;12.15;10.38;;;;;;;;;;4995206;28;20386;-83
2023/03/06 06:05:15;;;;;;;11.20;9.48;;;;;;;;;;4995111;28;20606;-84
2023/03/06 06:07:42;;;;;;;13.70;10.77;;;;;;;;;;4994427;28;20391;-84
2023/03/06 06:10:08;;;;;;;15.10;10.47;;;;;;;;;;4991984;28;20464;-83
2023/03/06 06:12:34;;;;;;;10.57;9.43;;;;;;;;;;4992336;28;20902;-82
2023/03/06 06:15:00;;;;;;;11.15;9.95;;;;;;;;;;4991771;28;20450;-82
2023/03/06 06:17:26;;;;;;;11.70;10.32;;;;;;;;;;4993172;28;20477;-83
2023/03/06 06:19:52;;;;;;;11.85;10.00;;;;;;;;;;4992097;28;20526;-83
2023/03/06 06:22:18;;;;;;;13.38;10.45;;;;;;;;;;4992792;28;20856;-83
2023/03/06 06:24:44;;;;;;;11.63;10.23;;;;;;;;;;4993974;28;20413;-83
2023/03/06 06:27:10;;;;;;;13.65;10.90;;;;;;;;;;4992942;28;20394;-82
2023/03/06 06:29:36;;;;;;;12.77;10.27;;;;;;;;;;4993573;28;20867;-83
2023/03/06 06:32:02;;;;;;;13.10;10.57;;;;;;;;;;4993496;28;20405;-82
2023/03/06 06:34:29;;;;;;;13.45;10.45;;;;;;;;;;4975592;28;20422;-83
2023/03/06 06:36:55;;;;;;;13.68;10.65;;;;;;;;;;4993722;28;20920;-82
2023/03/06 06:39:22;;;;;;;14.80;10.23;;;;;;;;;;4993727;28;20470;-82
2023/03/06 06:41:50;;;;;;;13.00;10.75;;;;;;;;;;4992974;28;20390;-82
2023/03/06 06:44:17;;;;;;;13.27;10.85;;;;;;;;;;4993061;28;20473;-82
2023/03/06 06:46:44;;;;;;;18.25;11.15;;;;;;;;;;4992293;28;20441;-82
2023/03/06 06:49:11;;;;;;;14.60;11.13;;;;;;;;;;4992928;28;20413;-82
2023/03/06 06:51:38;;;;;;;14.80;10.95;;;;;;;;;;4992956;28;20395;-83
2023/03/06 06:54:04;;;;;;;13.90;10.63;;;;;;;;;;4992777;28;20393;-83
2023/03/06 06:56:30;;;;;;;13.25;10.55;;;;;;;;;;4993274;28;20473;-82
2023/03/06 06:58:58;;;;;;;11.75;10.00;;;;;;;;;;4994211;28;20477;-82
2023/03/06 07:01:24;;;;;;;13.20;10.93;;;;;;;;;;4994381;28;20389;-83
2023/03/06 07:03:50;;;;;;;13.25;10.57;;;;;;;;;;4994348;28;20449;-83
2023/03/06 07:06:16;;;;;;;13.57;10.77;;;;;;;;;;4994423;28;20441;-82
2023/03/06 07:08:43;;;;;;;13.75;10.65;;;;;;;;;;4994438;28;20403;-83
2023/03/06 07:11:11;;;;;;;13.60;11.32;;;;;;;;;;4994357;28;20401;-83
2023/03/06 07:13:37;;;;;;;12.70;10.95;;;;;;;;;;4994352;28;20426;-83
2023/03/06 07:16:03;;;;;;;12.77;10.68;;;;;;;;;;4992376;28;20465;-83
2023/03/06 07:18:29;;;;;;;12.55;10.27;;;;;;;;;;4992624;28;20382;-83
2023/03/06 07:20:55;;;;;;;14.13;10.80;;;;;;;;;;4991984;28;20760;-83
2023/03/06 07:23:22;;;;;;;13.02;10.48;;;;;;;;;;4992448;28;20864;-82
2023/03/06 07:25:48;;;;;;;15.15;12.20;;;;;;;;;;4993242;28;20393;-82
2023/03/06 07:28:14;;;;;;;12.70;10.60;;;;;;;;;;4993580;28;20817;-82
2023/03/06 07:30:41;;;;;;;12.50;10.65;;;;;;;;;;4993837;28;20516;-82
2023/03/06 07:33:07;;;;;;;14.05;11.07;;;;;;;;;;4993481;28;21246;-82
2023/03/06 07:35:33;;;;;;;13.43;11.02;;;;;;;;;;4993743;28;20440;-82
2023/03/06 07:37:59;;;;;;;13.15;10.70;;;;;;;;;;4993214;28;20867;-82
2023/03/06 07:40:25;;;;;;;14.77;11.57;;;;;;;;;;4992188;28;20402;-82
2023/03/06 07:42:55;;;;;;;13.48;11.13;;;;;;;;;;4990916;28;20405;-82
2023/03/06 07:45:21;;;;;;;15.98;11.80;;;;;;;;;;4992011;28;20824;-82
2023/03/06 07:47:49;;;;;;;15.73;12.07;;;;;;;;;;4974229;28;20761;-82
2023/03/06 07:50:15;;;;;;;15.73;12.38;;;;;;;;;;4991432;28;20748;-81
2023/03/06 07:52:41;;;;;;;16.15;12.73;;;;;;;;;;4992230;28;20473;-82
2023/03/06 07:55:08;;;;;;;15.68;12.30;;;;;;;;;;4992108;28;20532;-82
2023/03/06 07:57:34;;;;;;;17.20;12.77;;;;;;;;;;4991677;28;20496;-81
2023/03/06 08:00:00;;;;;;;15.60;12.93;;;;;;;;;;4991678;28;20447;-82
2023/03/06 08:02:26;;;;;;;16.90;12.18;;;;;;;;;;4991977;28;20386;-81
2023/03/06 08:04:53;;;;;;;16.43;12.07;;;;;;;;;;4974588;28;20832;-82
2023/03/06 08:07:20;;;;;;;18.75;12.80;;;;;;;;;;4991978;28;20460;-82
2023/03/06 08:09:46;;;;;;;18.33;12.80;;;;;;;;;;4991961;28;20394;-82
2023/03/06 08:12:12;;;;;;;17.00;12.93;;;;;;;;;;4974336;28;20398;-81
2023/03/06 08:14:38;;;;;;;16.38;12.65;;;;;;;;;;4991413;28;20433;-81
2023/03/06 08:17:04;;;;;;;15.98;12.77;;;;;;;;;;4989451;28;20410;-82
2023/03/06 08:19:30;;;;;;;17.65;12.68;;;;;;;;;;4973819;28;20880;-83
2023/03/06 08:21:56;;;;;;;18.77;13.25;;;;;;;;;;4991236;28;20405;-82
2023/03/06 08:24:22;;;;;;;17.45;13.00;;;;;;;;;;4991254;28;20487;-83
2023/03/06 08:26:48;;;;;;;19.90;13.32;;;;;;;;;;4973870;28;20397;-83
2023/03/06 08:29:14;;;;;;;19.63;13.70;;;;;;;;;;4990608;28;20729;-83
2023/03/06 08:31:44;;;;;;;19.85;13.50;;;;;;;;;;4992045;28;20867;-82
2023/03/06 08:34:12;;;;;;;17.92;13.38;;;;;;;;;;4992828;28;20490;-83
2023/03/06 08:36:38;;;;;;;21.17;13.80;;;;;;;;;;4975169;28;20436;-82
2023/03/06 08:39:04;;;;;;;16.77;13.10;;;;;;;;;;4992333;28;20752;-83
2023/03/06 08:41:31;;;;;;;17.33;13.23;;;;;;;;;;4975081;28;20395;-83
2023/03/06 08:43:57;;;;;;;18.67;13.80;;;;;;;;;;4991437;28;20395;-83
2023/03/06 08:46:24;;;;;;;19.97;14.13;;;;;;;;;;4992475;28;20452;-84
2023/03/06 08:48:50;;;;;;;20.65;15.20;;;;;;;;;;4992297;28;20386;-84
2023/03/06 08:51:16;;;;;;;20.58;15.02;;;;;;;;;;4992278;28;20402;-83
2023/03/06 08:53:43;;;;;;;22.93;15.00;;;;;;;;;;4990540;28;20530;-84
2023/03/06 08:56:16;;;;;;;23.70;15.50;;;;;;;;;;4992850;28;20638;-82
2023/03/06 08:58:42;;;;;;;24.75;16.73;;;;;;;;;;4993416;28;20513;-82
2023/03/06 09:01:19;;;;;;;25.13;16.40;;;;;;;;;;4975812;28;20450;-83
2023/03/06 09:03:45;;;;;;;24.30;15.90;;;;;;;;;;4992768;28;20710;-83
2023/03/06 09:06:11;;;;;;;22.92;16.15;;;;;;;;;;4992830;28;20390;-83
2023/03/06 09:08:41;;;;;;;24.65;16.50;;;;;;;;;;4992011;28;20473;-84
2023/03/06 09:11:07;;;;;;;20.90;15.68;;;;;;;;;;4991939;28;20442;-83
2023/03/06 09:13:33;;;;;;;25.55;16.05;;;;;;;;;;4991994;28;20386;-83
2023/03/06 09:15:59;;;;;;;22.90;16.00;;;;;;;;;;4974499;28;20430;-84
2023/03/06 09:18:25;;;;;;;22.42;16.10;;;;;;;;;;4974806;28;20478;-83
2023/03/06 09:20:51;;;;;;;21.27;15.05;;;;;;;;;;4992012;28;20409;-83
2023/03/06 09:23:17;;;;;;;23.45;16.40;;;;;;;;;;4992271;28;20429;-83
2023/03/06 09:25:43;;;;;;;21.17;15.85;;;;;;;;;;4992179;28;20938;-83
2023/03/06 09:28:09;;;;;;;19.98;15.15;;;;;;;;;;4992229;28;20390;-84
2023/03/06 09:30:35;;;;;;;20.25;15.35;;;;;;;;;;4992137;28;20856;-84
2023/03/06 09:33:01;;;;;;;20.57;14.97;;;;;;;;;;4992278;28;20435;-84
2023/03/06 09:35:27;;;;;;;19.83;15.18;;;;;;;;;;4991508;28;20985;-84
2023/03/06 09:37:53;;;;;;;21.40;16.20;;;;;;;;;;4991670;28;20390;-84
2023/03/06 09:40:23;;;;;;;19.98;15.40;;;;;;;;;;4991610;28;20776;-84
2023/03/06 09:42:49;;;;;;;22.23;15.35;;;;;;;;;;4976428;28;20398;-83
2023/03/06 09:45:15;;;;;;;17.47;14.83;;;;;;;;;;4991234;28;20457;-82
2023/03/06 09:47:49;;;;;;;23.90;15.70;;;;;;;;;;4991466;28;20903;-83
2023/03/06 09:50:34;;;;;;;19.95;15.85;;;;;;;;;;4981454;28;20406;-83
2023/03/06 09:53:00;;;;;;;20.95;15.38;;;;;;;;;;4974291;28;20394;-83
2023/03/06 09:55:30;;;;;;;20.98;15.35;;;;;;;;;;4996974;28;20445;-84
2023/03/06 09:57:59;;;;;;;21.88;15.73;;;;;;;;;;4976384;28;20437;-83
2023/03/06 10:00:28;;;;;;;21.80;15.93;;;;;;;;;;4993484;28;20963;-83
2023/03/06 10:03:00;;;;;;;23.40;15.77;;;;;;;;;;4991495;28;20391;-84
2023/03/06 10:05:31;;;;;;;22.15;15.25;;;;;;;;;;4974262;28;20456;-84
2023/03/06 10:07:57;;;;;;;21.42;15.10;;;;;;;;;;4979330;28;20443;-84
2023/03/06 10:10:25;;;;;;;18.63;15.18;;;;;;;;;;4991205;28;20383;-82
2023/03/06 10:13:01;;;;;;;20.58;14.10;;;;;;;;;;4972855;28;20421;-82
2023/03/06 10:15:36;;;;;;;18.25;14.07;;;;;;;;;;4990422;28;20417;-82
2023/03/06 10:18:03;;;;;;;18.75;14.60;;;;;;;;;;4990523;28;20583;-82
2023/03/06 10:20:48;;;;;;;19.90;13.77;;;;;;;;;;4990265;28;20383;-82
2023/03/06 10:23:14;;;;;;;21.55;14.38;;;;;;;;;;4993487;28;20461;-83
2023/03/06 10:25:43;;;;;;;20.55;14.10;;;;;;;;;;4992860;28;20795;-82
2023/03/06 10:28:14;;;;;;;19.48;14.00;;;;;;;;;;4993572;28;20418;-82
2023/03/06 10:30:43;;;;;;;17.83;13.70;;;;;;;;;;4975970;28;20477;-82
2023/03/06 10:33:09;;;;;;;18.38;13.52;;;;;;;;;;4989981;28;20895;-82
2023/03/06 10:35:38;;;;;;;17.60;14.07;;;;;;;;;;4993404;28;20445;-81
2023/03/06 10:38:16;;;;;;;15.60;13.05;;;;;;;;;;4993754;28;20448;-82
2023/03/06 10:40:46;;;;;;;14.75;12.73;;;;;;;;;;4992951;28;20395;-81
2023/03/06 10:43:12;;;;;;;15.88;12.68;;;;;;;;;;4976204;28;20410;-82
2023/03/06 10:45:47;;;;;;;16.93;12.90;;;;;;;;;;4993252;28;20473;-81
2023/03/06 10:48:17;;;;;;;15.18;12.15;;;;;;;;;;4993107;28;20884;-81
2023/03/06 10:50:43;;;;;;;15.40;12.07;;;;;;;;;;4993261;28;20390;-81
2023/03/06 10:53:18;;;;;;;13.75;12.25;;;;;;;;;;4993233;28;20405;-81
2023/03/06 10:55:50;;;;;;;12.90;11.25;;;;;;;;;;4992296;28;20426;-81
2023/03/06 10:58:22;;;;;;;11.77;10.57;;;;;;;;;;4983205;28;20513;-82
2023/03/06 11:00:59;;;;;;;11.73;10.48;;;;;;;;;;4994519;28;20430;-81
2023/03/06 11:03:25;;;;;;;11.68;10.40;;;;;;;;;;4994205;28;20398;-82
2023/03/06 11:06:08;;;;;;;12.40;11.10;;;;;;;;;;4994242;28;20390;-81
2023/03/06 11:08:35;;;;;;;11.20;10.10;;;;;;;;;;4994058;28;20502;-81
2023/03/06 11:11:01;;;;;;;13.25;10.75;;;;;;;;;;4994218;28;20391;-82
2023/03/06 11:13:29;;;;;;;11.77;10.55;;;;;;;;;;4994250;28;20386;-82
2023/03/06 11:15:56;;;;;;;11.27;10.15;;;;;;;;;;4994222;28;20426;-82
2023/03/06 11:18:27;;;;;;;12.07;10.75;;;;;;;;;;4976755;28;20421;-81
2023/03/06 11:20:54;;;;;;;11.50;10.30;;;;;;;;;;4994317;28;20394;-81
2023/03/06 11:23:29;;;;;;;11.88;10.10;;;;;;;;;;4994247;28;20391;-83
2023/03/06 11:25:58;;;;;;;12.70;11.23;;;;;;;;;;4976284;28;20406;-82
2023/03/06 11:28:27;;;;;;;11.85;10.65;;;;;;;;;;4993787;28;20421;-82
2023/03/06 11:31:13;;;;;;;11.35;10.25;;;;;;;;;;4994739;28;20390;-82
2023/03/06 11:33:49;;;;;;;12.02;10.45;;;;;;;;;;4965171;28;20386;-82
2023/03/06 11:36:15;;;;;;;12.02;10.73;;;;;;;;;;4993047;28;20414;-82
2023/03/06 11:38:48;;;;;;;14.95;11.45;;;;;;;;;;4993783;28;20743;-83
2023/03/06 11:41:19;;;;;;;11.27;10.18;;;;;;;;;;4993878;28;20418;-84
2023/03/06 11:44:02;;;;;;;11.65;10.48;;;;;;;;;;4992909;28;20401;-84
2023/03/06 11:46:31;;;;;;;11.63;10.43;;;;;;;;;;4993161;28;20412;-85
2023/03/06 11:49:15;;;;;;;12.95;10.45;;;;;;;;;;4992990;28;20401;-85
2023/03/06 11:51:49;;;;;;;11.05;10.05;;;;;;;;;;4993307;28;20386;-85
2023/03/06 11:54:15;;;;;;;11.70;10.60;;;;;;;;;;4990782;28;20391;-83
2023/03/06 11:57:03;;;;;;;10.88;9.80;;;;;;;;;;4975825;28;20410;-83
2023/03/06 11:59:49;;;;;;;11.02;9.88;;;;;;;;;;4993003;28;20852;-83
2023/03/06 12:02:38;;;;;;;9.73;8.77;;;;;;;;;;4988292;28;20738;-83
2023/03/06 12:05:20;;;;;;;10.97;9.90;;;;;;;;;;4973059;28;20388;-83
2023/03/06 12:07:57;;;;;;;10.35;9.35;;;;;;;;;;4975247;28;20399;-82
2023/03/06 12:10:26;;;;;;;10.73;9.65;;;;;;;;;;4974749;28;20408;-82
2023/03/06 12:12:58;;;;;;;11.23;9.93;;;;;;;;;;4956763;28;20773;-82
2023/03/06 12:15:37;;;;;;;11.82;10.63;;;;;;;;;;4974843;28;20424;-82
2023/03/06 12:18:10;;;;;;;11.35;10.15;;;;;;;;;;4973326;28;20419;-82
2023/03/06 12:20:44;;;;;;;11.90;10.70;;;;;;;;;;4982511;28;20411;-82
2023/03/06 12:23:16;;;;;;;15.02;10.50;;;;;;;;;;4972546;28;20384;-82
2023/03/06 12:25:43;;;;;;;11.43;10.13;;;;;;;;;;4974688;28;20387;-82
2023/03/06 12:28:12;;;;;;;11.30;10.18;;;;;;;;;;4974491;28;20388;-82
2023/03/06 12:30:57;;;;;;;11.67;10.47;;;;;;;;;;4975493;28;20477;-82
2023/03/06 12:33:23;;;;;;;11.27;10.18;;;;;;;;;;4977563;28;20471;-82
2023/03/06 12:35:58;;;;;;;11.50;10.35;;;;;;;;;;4956593;28;20499;-82
2023/03/06 12:38:38;;;;;;;13.13;10.65;;;;;;;;;;4972719;28;20447;-83
2023/03/06 12:41:16;;;;;;;10.52;9.52;;;;;;;;;;4971813;28;20949;-83
2023/03/06 12:44:09;;;;;;;9.82;8.90;;;;;;;;;;4975205;28;20482;-82
2023/03/06 12:46:46;;;;;;;10.43;9.40;;;;;;;;;;4972609;28;20403;-81
2023/03/06 12:49:26;;;;;;;10.27;9.27;;;;;;;;;;4976371;28;20420;-82
2023/03/06 12:51:53;;;;;;;10.98;9.93;;;;;;;;;;4983951;28;20413;-83
2023/03/06 12:54:22;;;;;;;11.02;9.70;;;;;;;;;;4992094;28;20883;-84
2023/03/06 12:56:48;;;;;;;9.65;8.75;;;;;;;;;;4990804;28;20469;-84
2023/03/06 12:59:35;;;;;;;9.88;8.98;;;;;;;;;;4988867;28;20386;-85
2023/03/06 13:02:03;;;;;;;10.63;9.63;;;;;;;;;;4992348;28;20390;-84
2023/03/06 13:04:45;;;;;;;11.18;9.90;;;;;;;;;;4992450;28;20425;-84
2023/03/06 13:07:14;;;;;;;10.20;9.25;;;;;;;;;;4986005;28;20435;-84
2023/03/06 13:09:55;;;;;;;10.88;9.80;;;;;;;;;;4978928;28;20447;-84
2023/03/06 13:12:39;;;;;;;13.45;10.55;;;;;;;;;;4992131;28;20406;-84
2023/03/06 13:15:22;;;;;;;13.15;11.50;;;;;;;;;;4976948;28;20480;-84
2023/03/06 13:17:48;;;;;;;12.75;10.63;;;;;;;;;;4992293;28;20405;-84
2023/03/06 13:20:15;;;;;;;10.15;9.13;;;;;;;;;;4985021;28;20382;-84
2023/03/06 13:22:45;;;;;;;10.23;9.20;;;;;;;;;;4984157;28;20403;-83
2023/03/06 13:25:20;;;;;;;10.45;9.38;;;;;;;;;;4988015;28;20390;-83
2023/03/06 13:27:46;;;;;;;8.38;7.57;;;;;;;;;;4991679;28;20470;-83
2023/03/06 13:30:38;;;;;;;8.33;7.20;;;;;;;;;;4991724;28;20482;-83
2023/03/06 13:33:35;;;;;;;8.50;7.63;;;;;;;;;;4988552;28;20540;-83
2023/03/06 13:36:20;;;;;;;7.80;7.05;;;;;;;;;;4975688;28;20425;-83
2023/03/06 13:38:54;;;;;;;7.78;6.80;;;;;;;;;;4991192;28;20407;-83
2023/03/06 13:41:20;;;;;;;7.20;6.50;;;;;;;;;;4989158;28;20763;-83
2023/03/06 13:43:46;;;;;;;7.43;6.30;;;;;;;;;;4991761;28;20387;-83
2023/03/06 13:46:24;;;;;;;6.95;6.35;;;;;;;;;;4974324;28;20454;-83
2023/03/06 13:49:16;;;;;;;8.38;7.47;;;;;;;;;;4991782;28;20390;-83
2023/03/06 13:51:45;;;;;;;7.70;6.90;;;;;;;;;;4988327;28;20430;-83
2023/03/06 13:54:20;;;;;;;7.55;6.85;;;;;;;;;;4991981;28;20441;-83
2023/03/06 13:56:49;;;;;;;7.43;6.70;;;;;;;;;;4992700;28;20430;-83
2023/03/06 13:59:34;;;;;;;7.18;6.28;;;;;;;;;;4995412;28;20390;-85
2023/03/06 14:02:14;;;;;;;7.78;7.07;;;;;;;;;;4995443;28;20518;-83
2023/03/06 14:04:43;;;;;;;7.55;6.85;;;;;;;;;;4995523;28;20863;-84
2023/03/06 14:07:35;;;;;;;7.43;6.82;;;;;;;;;;4995534;28;20402;-85
2023/03/06 14:10:01;;;;;;;8.35;6.95;;;;;;;;;;4991284;28;20399;-83
2023/03/06 14:12:35;;;;;;;8.33;7.53;;;;;;;;;;4995070;28;20413;-83
2023/03/06 14:15:05;;;;;;;7.80;7.10;;;;;;;;;;4994923;28;20512;-84
2023/03/06 14:17:32;;;;;;;7.28;6.68;;;;;;;;;;4995084;28;20386;-84
2023/03/06 14:20:15;;;;;;;7.70;6.90;;;;;;;;;;4995037;28;20386;-84
2023/03/06 14:22:41;;;;;;;7.22;6.53;;;;;;;;;;4994729;28;20390;-84
2023/03/06 14:25:13;;;;;;;7.13;6.53;;;;;;;;;;4994319;28;20397;-83
2023/03/06 14:27:42;;;;;;;7.30;6.20;;;;;;;;;;4995175;28;20393;-83
2023/03/06 14:30:10;;;;;;;6.80;6.20;;;;;;;;;;4986454;28;20723;-84
2023/03/06 14:32:37;;;;;;;6.80;6.20;;;;;;;;;;4994547;28;20406;-84